sensor_id;sensor_type;location;lat;lon;timestamp;P1;durP1;ratioP1;P2;durP2;ratioP2
20173;SDS011;10246;50.620;7.232;2022-08-19T00:00:07;13.40;;;10.90;;
20173;SDS011;10246;50.620;7.232;2022-08-19T00:02:35;10.80;;;9.60;;
20173;SDS011;10246;50.620;7.232;2022-08-19T00:05:03;13.13;;;9.67;;
20173;SDS011;10246;50.620;7.232;2022-08-19T00:07:30;13.10;;;10.33;;
20173;SDS011;10246;50.620;7.232;2022-08-19T00:09:57;11.83;;;10.40;;
20173;SDS011;10246;50.620;7.232;2022-08-19T00:12:25;11.57;;;10.30;;
20173;SDS011;10246;50.620;7.232;2022-08-19T00:14:52;10.40;;;9.33;;
20173;SDS011;10246;50.620;7.232;2022-08-19T00:17:19;10.57;;;9.47;;
20173;SDS011;10246;50.620;7.232;2022-08-19T00:19:46;11.47;;;9.30;;
20173;SDS011;10246;50.620;7.232;2022-08-19T00:22:13;9.43;;;8.53;;
20173;SDS011;10246;50.620;7.232;2022-08-19T00:24:40;10.97;;;8.70;;
20173;SDS011;10246;50.620;7.232;2022-08-19T00:27:08;9.83;;;8.60;;
20173;SDS011;10246;50.620;7.232;2022-08-19T00:29:36;9.03;;;7.73;;
20173;SDS011;10246;50.620;7.232;2022-08-19T00:32:04;10.93;;;8.53;;
20173;SDS011;10246;50.620;7.232;2022-08-19T00:34:31;9.43;;;8.50;;
20173;SDS011;10246;50.620;7.232;2022-08-19T00:36:58;10.47;;;8.80;;
20173;SDS011;10246;50.620;7.232;2022-08-19T00:39:25;10.83;;;9.17;;
20173;SDS011;10246;50.620;7.232;2022-08-19T00:41:52;10.80;;;9.70;;
20173;SDS011;10246;50.620;7.232;2022-08-19T00:44:20;11.07;;;9.47;;
20173;SDS011;10246;50.620;7.232;2022-08-19T00:46:50;13.37;;;9.93;;
20173;SDS011;10246;50.620;7.232;2022-08-19T00:49:19;10.73;;;9.60;;
20173;SDS011;10246;50.620;7.232;2022-08-19T00:51:51;11.40;;;10.03;;
20173;SDS011;10246;50.620;7.232;2022-08-19T00:54:20;11.17;;;9.70;;
20173;SDS011;10246;50.620;7.232;2022-08-19T00:56:47;10.50;;;9.40;;
20173;SDS011;10246;50.620;7.232;2022-08-19T00:59:15;11.23;;;10.13;;
20173;SDS011;10246;50.620;7.232;2022-08-19T01:01:45;11.83;;;9.13;;
20173;SDS011;10246;50.620;7.232;2022-08-19T01:04:14;10.17;;;8.93;;
20173;SDS011;10246;50.620;7.232;2022-08-19T01:06:41;10.77;;;9.17;;
20173;SDS011;10246;50.620;7.232;2022-08-19T01:09:08;9.77;;;8.47;;
20173;SDS011;10246;50.620;7.232;2022-08-19T01:11:36;10.87;;;9.20;;
20173;SDS011;10246;50.620;7.232;2022-08-19T01:14:05;9.17;;;8.20;;
20173;SDS011;10246;50.620;7.232;2022-08-19T01:16:33;9.63;;;8.63;;
20173;SDS011;10246;50.620;7.232;2022-08-19T01:19:02;10.70;;;8.90;;
20173;SDS011;10246;50.620;7.232;2022-08-19T01:21:39;9.33;;;8.43;;
20173;SDS011;10246;50.620;7.232;2022-08-19T01:24:12;9.57;;;8.57;;
20173;SDS011;10246;50.620;7.232;2022-08-19T01:26:40;9.23;;;8.33;;
20173;SDS011;10246;50.620;7.232;2022-08-19T01:29:09;10.53;;;8.60;;
20173;SDS011;10246;50.620;7.232;2022-08-19T01:31:37;9.60;;;8.50;;
20173;SDS011;10246;50.620;7.232;2022-08-19T01:34:05;9.77;;;8.30;;
20173;SDS011;10246;50.620;7.232;2022-08-19T01:36:33;9.20;;;8.20;;
20173;SDS011;10246;50.620;7.232;2022-08-19T01:39:03;9.90;;;8.40;;
20173;SDS011;10246;50.620;7.232;2022-08-19T01:41:34;9.60;;;8.40;;
20173;SDS011;10246;50.620;7.232;2022-08-19T01:44:01;8.83;;;7.93;;
20173;SDS011;10246;50.620;7.232;2022-08-19T01:46:31;8.83;;;7.83;;
20173;SDS011;10246;50.620;7.232;2022-08-19T01:48:58;9.57;;;8.30;;
20173;SDS011;10246;50.620;7.232;2022-08-19T01:51:25;9.30;;;8.10;;
20173;SDS011;10246;50.620;7.232;2022-08-19T01:53:53;9.53;;;8.20;;
20173;SDS011;10246;50.620;7.232;2022-08-19T01:56:20;11.30;;;7.97;;
20173;SDS011;10246;50.620;7.232;2022-08-19T01:58:49;9.37;;;8.47;;
20173;SDS011;10246;50.620;7.232;2022-08-19T02:01:18;9.23;;;8.33;;
20173;SDS011;10246;50.620;7.232;2022-08-19T02:03:45;8.60;;;7.70;;
20173;SDS011;10246;50.620;7.232;2022-08-19T02:06:12;9.37;;;7.57;;
20173;SDS011;10246;50.620;7.232;2022-08-19T02:08:41;8.03;;;7.20;;
20173;SDS011;10246;50.620;7.232;2022-08-19T02:11:17;10.13;;;7.80;;
20173;SDS011;10246;50.620;7.232;2022-08-19T02:13:47;9.50;;;8.10;;
20173;SDS011;10246;50.620;7.232;2022-08-19T02:16:15;9.27;;;7.97;;
20173;SDS011;10246;50.620;7.232;2022-08-19T02:18:42;8.83;;;7.90;;
20173;SDS011;10246;50.620;7.232;2022-08-19T02:21:09;9.37;;;8.20;;
20173;SDS011;10246;50.620;7.232;2022-08-19T02:23:36;10.53;;;7.90;;
20173;SDS011;10246;50.620;7.232;2022-08-19T02:26:03;8.20;;;7.40;;
20173;SDS011;10246;50.620;7.232;2022-08-19T02:28:30;8.83;;;7.87;;
20173;SDS011;10246;50.620;7.232;2022-08-19T02:30:58;10.50;;;8.53;;
20173;SDS011;10246;50.620;7.232;2022-08-19T02:33:27;10.10;;;8.53;;
20173;SDS011;10246;50.620;7.232;2022-08-19T02:35:54;10.77;;;8.03;;
20173;SDS011;10246;50.620;7.232;2022-08-19T02:38:21;10.30;;;9.20;;
20173;SDS011;10246;50.620;7.232;2022-08-19T02:40:54;10.40;;;9.30;;
20173;SDS011;10246;50.620;7.232;2022-08-19T02:43:22;10.03;;;8.83;;
20173;SDS011;10246;50.620;7.232;2022-08-19T02:45:50;9.40;;;8.40;;
20173;SDS011;10246;50.620;7.232;2022-08-19T02:48:19;10.20;;;8.47;;
20173;SDS011;10246;50.620;7.232;2022-08-19T02:50:47;10.27;;;8.33;;
20173;SDS011;10246;50.620;7.232;2022-08-19T02:53:19;9.33;;;8.37;;
20173;SDS011;10246;50.620;7.232;2022-08-19T02:55:47;9.13;;;8.23;;
20173;SDS011;10246;50.620;7.232;2022-08-19T02:58:15;9.20;;;8.20;;
20173;SDS011;10246;50.620;7.232;2022-08-19T03:00:43;9.23;;;8.30;;
20173;SDS011;10246;50.620;7.232;2022-08-19T03:03:11;9.80;;;8.80;;
20173;SDS011;10246;50.620;7.232;2022-08-19T03:05:39;11.27;;;8.50;;
20173;SDS011;10246;50.620;7.232;2022-08-19T03:08:06;10.97;;;8.83;;
20173;SDS011;10246;50.620;7.232;2022-08-19T03:10:39;9.97;;;8.97;;
20173;SDS011;10246;50.620;7.232;2022-08-19T03:13:09;8.70;;;7.80;;
20173;SDS011;10246;50.620;7.232;2022-08-19T03:15:38;11.27;;;8.47;;
20173;SDS011;10246;50.620;7.232;2022-08-19T03:18:06;10.03;;;8.97;;
20173;SDS011;10246;50.620;7.232;2022-08-19T03:20:33;10.97;;;9.50;;
20173;SDS011;10246;50.620;7.232;2022-08-19T03:23:01;10.40;;;9.30;;
20173;SDS011;10246;50.620;7.232;2022-08-19T03:25:28;11.50;;;8.90;;
20173;SDS011;10246;50.620;7.232;2022-08-19T03:27:54;9.77;;;8.50;;
20173;SDS011;10246;50.620;7.232;2022-08-19T03:30:21;9.93;;;8.77;;
20173;SDS011;10246;50.620;7.232;2022-08-19T03:32:48;10.70;;;9.23;;
20173;SDS011;10246;50.620;7.232;2022-08-19T03:35:14;12.63;;;9.47;;
20173;SDS011;10246;50.620;7.232;2022-08-19T03:37:41;9.73;;;8.73;;
20173;SDS011;10246;50.620;7.232;2022-08-19T03:40:10;9.87;;;8.87;;
20173;SDS011;10246;50.620;7.232;2022-08-19T03:42:36;10.40;;;9.17;;
20173;SDS011;10246;50.620;7.232;2022-08-19T03:45:04;8.80;;;7.87;;
20173;SDS011;10246;50.620;7.232;2022-08-19T03:47:32;9.37;;;8.37;;
20173;SDS011;10246;50.620;7.232;2022-08-19T03:49:58;10.93;;;8.80;;
20173;SDS011;10246;50.620;7.232;2022-08-19T03:52:25;10.10;;;9.10;;
20173;SDS011;10246;50.620;7.232;2022-08-19T03:54:52;9.97;;;8.80;;
20173;SDS011;10246;50.620;7.232;2022-08-19T03:57:20;10.23;;;8.87;;
20173;SDS011;10246;50.620;7.232;2022-08-19T03:59:47;9.57;;;8.57;;
20173;SDS011;10246;50.620;7.232;2022-08-19T04:02:14;11.03;;;9.83;;
20173;SDS011;10246;50.620;7.232;2022-08-19T04:04:42;11.93;;;9.77;;
20173;SDS011;10246;50.620;7.232;2022-08-19T04:07:09;11.40;;;9.20;;
20173;SDS011;10246;50.620;7.232;2022-08-19T04:09:37;9.53;;;8.20;;
20173;SDS011;10246;50.620;7.232;2022-08-19T04:12:05;11.03;;;8.73;;
20173;SDS011;10246;50.620;7.232;2022-08-19T04:14:33;9.90;;;8.90;;
20173;SDS011;10246;50.620;7.232;2022-08-19T04:17:01;11.40;;;9.00;;
20173;SDS011;10246;50.620;7.232;2022-08-19T04:19:30;9.77;;;8.80;;
20173;SDS011;10246;50.620;7.232;2022-08-19T04:21:57;9.70;;;8.70;;
20173;SDS011;10246;50.620;7.232;2022-08-19T04:24:24;9.47;;;8.47;;
20173;SDS011;10246;50.620;7.232;2022-08-19T04:26:51;10.37;;;8.87;;
20173;SDS011;10246;50.620;7.232;2022-08-19T04:29:18;10.50;;;9.43;;
20173;SDS011;10246;50.620;7.232;2022-08-19T04:31:51;11.37;;;9.63;;
20173;SDS011;10246;50.620;7.232;2022-08-19T04:34:20;10.80;;;9.50;;
20173;SDS011;10246;50.620;7.232;2022-08-19T04:36:48;11.20;;;8.83;;
20173;SDS011;10246;50.620;7.232;2022-08-19T04:39:17;10.87;;;9.10;;
20173;SDS011;10246;50.620;7.232;2022-08-19T04:41:47;11.27;;;10.00;;
20173;SDS011;10246;50.620;7.232;2022-08-19T04:44:34;10.27;;;9.10;;
20173;SDS011;10246;50.620;7.232;2022-08-19T04:47:03;10.57;;;9.47;;
20173;SDS011;10246;50.620;7.232;2022-08-19T04:49:31;11.03;;;9.63;;
20173;SDS011;10246;50.620;7.232;2022-08-19T04:51:58;10.87;;;9.60;;
20173;SDS011;10246;50.620;7.232;2022-08-19T04:54:25;11.00;;;9.80;;
20173;SDS011;10246;50.620;7.232;2022-08-19T04:56:52;13.03;;;9.87;;
20173;SDS011;10246;50.620;7.232;2022-08-19T04:59:19;10.73;;;9.63;;
20173;SDS011;10246;50.620;7.232;2022-08-19T05:01:47;10.57;;;9.47;;
20173;SDS011;10246;50.620;7.232;2022-08-19T05:04:16;14.77;;;10.50;;
20173;SDS011;10246;50.620;7.232;2022-08-19T05:06:45;11.73;;;9.87;;
20173;SDS011;10246;50.620;7.232;2022-08-19T05:09:12;11.63;;;10.43;;
20173;SDS011;10246;50.620;7.232;2022-08-19T05:11:40;11.27;;;9.60;;
20173;SDS011;10246;50.620;7.232;2022-08-19T05:14:07;12.20;;;10.33;;
20173;SDS011;10246;50.620;7.232;2022-08-19T05:16:34;11.10;;;9.40;;
20173;SDS011;10246;50.620;7.232;2022-08-19T05:19:01;10.27;;;9.17;;
20173;SDS011;10246;50.620;7.232;2022-08-19T05:21:46;10.50;;;9.37;;
20173;SDS011;10246;50.620;7.232;2022-08-19T05:24:31;10.67;;;9.57;;
20173;SDS011;10246;50.620;7.232;2022-08-19T05:26:59;10.83;;;9.23;;
20173;SDS011;10246;50.620;7.232;2022-08-19T05:29:27;10.77;;;9.20;;
20173;SDS011;10246;50.620;7.232;2022-08-19T05:31:56;9.90;;;8.90;;
20173;SDS011;10246;50.620;7.232;2022-08-19T05:34:24;10.63;;;9.07;;
20173;SDS011;10246;50.620;7.232;2022-08-19T05:36:53;9.63;;;8.63;;
20173;SDS011;10246;50.620;7.232;2022-08-19T05:39:22;9.60;;;8.03;;
20173;SDS011;10246;50.620;7.232;2022-08-19T05:41:51;11.37;;;8.77;;
20173;SDS011;10246;50.620;7.232;2022-08-19T05:44:22;9.67;;;8.77;;
20173;SDS011;10246;50.620;7.232;2022-08-19T05:46:49;10.33;;;9.20;;
20173;SDS011;10246;50.620;7.232;2022-08-19T05:49:18;10.37;;;9.10;;
20173;SDS011;10246;50.620;7.232;2022-08-19T05:51:47;10.70;;;9.60;;
20173;SDS011;10246;50.620;7.232;2022-08-19T05:54:15;12.47;;;9.27;;
20173;SDS011;10246;50.620;7.232;2022-08-19T05:56:42;10.30;;;9.07;;
20173;SDS011;10246;50.620;7.232;2022-08-19T05:59:12;10.87;;;9.17;;
20173;SDS011;10246;50.620;7.232;2022-08-19T06:01:40;10.43;;;9.37;;
20173;SDS011;10246;50.620;7.232;2022-08-19T06:04:08;11.33;;;10.13;;
20173;SDS011;10246;50.620;7.232;2022-08-19T06:06:35;12.97;;;11.03;;
20173;SDS011;10246;50.620;7.232;2022-08-19T06:09:02;16.30;;;12.60;;
20173;SDS011;10246;50.620;7.232;2022-08-19T06:11:36;16.83;;;12.37;;
20173;SDS011;10246;50.620;7.232;2022-08-19T06:14:05;14.20;;;12.50;;
20173;SDS011;10246;50.620;7.232;2022-08-19T06:16:35;15.97;;;12.93;;
20173;SDS011;10246;50.620;7.232;2022-08-19T06:19:04;18.77;;;16.17;;
20173;SDS011;10246;50.620;7.232;2022-08-19T06:21:35;19.07;;;15.50;;
20173;SDS011;10246;50.620;7.232;2022-08-19T06:24:03;19.57;;;15.57;;
20173;SDS011;10246;50.620;7.232;2022-08-19T06:26:31;25.13;;;19.73;;
20173;SDS011;10246;50.620;7.232;2022-08-19T06:29:01;26.33;;;19.43;;
20173;SDS011;10246;50.620;7.232;2022-08-19T06:31:30;22.90;;;18.03;;
20173;SDS011;10246;50.620;7.232;2022-08-19T06:33:59;19.43;;;15.87;;
20173;SDS011;10246;50.620;7.232;2022-08-19T06:36:27;18.73;;;15.80;;
20173;SDS011;10246;50.620;7.232;2022-08-19T06:38:59;21.50;;;18.07;;
20173;SDS011;10246;50.620;7.232;2022-08-19T06:41:26;24.07;;;19.33;;
20173;SDS011;10246;50.620;7.232;2022-08-19T06:43:55;22.27;;;18.00;;
20173;SDS011;10246;50.620;7.232;2022-08-19T06:46:22;27.37;;;20.07;;
20173;SDS011;10246;50.620;7.232;2022-08-19T06:48:49;28.83;;;19.93;;
20173;SDS011;10246;50.620;7.232;2022-08-19T06:51:18;21.37;;;16.60;;
20173;SDS011;10246;50.620;7.232;2022-08-19T06:53:45;28.27;;;19.17;;
20173;SDS011;10246;50.620;7.232;2022-08-19T06:56:12;22.13;;;17.07;;
20173;SDS011;10246;50.620;7.232;2022-08-19T06:58:40;30.53;;;21.13;;
20173;SDS011;10246;50.620;7.232;2022-08-19T07:01:08;22.13;;;17.30;;
20173;SDS011;10246;50.620;7.232;2022-08-19T07:03:36;22.33;;;17.80;;
20173;SDS011;10246;50.620;7.232;2022-08-19T07:06:05;26.60;;;19.63;;
20173;SDS011;10246;50.620;7.232;2022-08-19T07:08:34;23.50;;;17.67;;
20173;SDS011;10246;50.620;7.232;2022-08-19T07:11:02;26.77;;;19.60;;
20173;SDS011;10246;50.620;7.232;2022-08-19T07:13:32;26.67;;;20.00;;
20173;SDS011;10246;50.620;7.232;2022-08-19T07:16:02;25.60;;;18.77;;
20173;SDS011;10246;50.620;7.232;2022-08-19T07:18:31;28.10;;;20.10;;
20173;SDS011;10246;50.620;7.232;2022-08-19T07:21:02;36.13;;;22.93;;
20173;SDS011;10246;50.620;7.232;2022-08-19T07:23:30;29.10;;;21.37;;
20173;SDS011;10246;50.620;7.232;2022-08-19T07:25:57;24.07;;;17.27;;
20173;SDS011;10246;50.620;7.232;2022-08-19T07:28:24;28.23;;;21.30;;
20173;SDS011;10246;50.620;7.232;2022-08-19T07:30:51;28.00;;;18.57;;
20173;SDS011;10246;50.620;7.232;2022-08-19T07:33:18;24.83;;;17.73;;
20173;SDS011;10246;50.620;7.232;2022-08-19T07:35:46;28.20;;;20.47;;
20173;SDS011;10246;50.620;7.232;2022-08-19T07:38:13;28.20;;;21.33;;
20173;SDS011;10246;50.620;7.232;2022-08-19T07:40:41;27.97;;;21.20;;
20173;SDS011;10246;50.620;7.232;2022-08-19T07:43:10;26.80;;;18.80;;
20173;SDS011;10246;50.620;7.232;2022-08-19T07:45:37;27.53;;;19.80;;
20173;SDS011;10246;50.620;7.232;2022-08-19T07:48:04;24.63;;;19.77;;
20173;SDS011;10246;50.620;7.232;2022-08-19T07:50:31;27.57;;;20.37;;
20173;SDS011;10246;50.620;7.232;2022-08-19T07:52:59;27.80;;;19.17;;
20173;SDS011;10246;50.620;7.232;2022-08-19T07:55:26;23.73;;;17.80;;
20173;SDS011;10246;50.620;7.232;2022-08-19T07:57:52;21.27;;;15.47;;
20173;SDS011;10246;50.620;7.232;2022-08-19T08:00:19;22.53;;;14.60;;
20173;SDS011;10246;50.620;7.232;2022-08-19T08:02:46;24.10;;;17.30;;
20173;SDS011;10246;50.620;7.232;2022-08-19T08:05:13;26.13;;;16.63;;
20173;SDS011;10246;50.620;7.232;2022-08-19T08:07:59;19.23;;;13.83;;
20173;SDS011;10246;50.620;7.232;2022-08-19T08:10:43;20.40;;;15.87;;
20173;SDS011;10246;50.620;7.232;2022-08-19T08:13:09;18.85;;;13.75;;
20173;SDS011;10246;50.620;7.232;2022-08-19T08:15:37;18.27;;;14.47;;
20173;SDS011;10246;50.620;7.232;2022-08-19T08:18:04;19.65;;;14.57;;
20173;SDS011;10246;50.620;7.232;2022-08-19T08:20:31;19.10;;;13.50;;
20173;SDS011;10246;50.620;7.232;2022-08-19T08:23:00;16.47;;;13.90;;
20173;SDS011;10246;50.620;7.232;2022-08-19T08:25:44;17.80;;;13.60;;
20173;SDS011;10246;50.620;7.232;2022-08-19T08:28:11;18.52;;;14.07;;
20173;SDS011;10246;50.620;7.232;2022-08-19T08:30:38;15.18;;;11.90;;
20173;SDS011;10246;50.620;7.232;2022-08-19T08:33:07;18.27;;;13.13;;
20173;SDS011;10246;50.620;7.232;2022-08-19T08:35:33;16.65;;;13.60;;
20173;SDS011;10246;50.620;7.232;2022-08-19T08:38:03;20.67;;;13.88;;
20173;SDS011;10246;50.620;7.232;2022-08-19T08:40:33;17.63;;;12.73;;
20173;SDS011;10246;50.620;7.232;2022-08-19T08:43:09;22.48;;;14.68;;
20173;SDS011;10246;50.620;7.232;2022-08-19T08:45:44;15.45;;;11.90;;
20173;SDS011;10246;50.620;7.232;2022-08-19T08:48:18;17.90;;;13.05;;
20173;SDS011;10246;50.620;7.232;2022-08-19T08:50:48;18.08;;;12.63;;
20173;SDS011;10246;50.620;7.232;2022-08-19T08:53:20;16.73;;;12.68;;
20173;SDS011;10246;50.620;7.232;2022-08-19T08:55:47;18.00;;;13.20;;
20173;SDS011;10246;50.620;7.232;2022-08-19T08:58:16;18.52;;;13.75;;
20173;SDS011;10246;50.620;7.232;2022-08-19T09:00:48;16.98;;;11.85;;
20173;SDS011;10246;50.620;7.232;2022-08-19T09:03:17;13.98;;;10.85;;
20173;SDS011;10246;50.620;7.232;2022-08-19T09:05:49;20.05;;;13.27;;
20173;SDS011;10246;50.620;7.232;2022-08-19T09:08:27;20.40;;;13.55;;
20173;SDS011;10246;50.620;7.232;2022-08-19T09:11:06;16.92;;;13.73;;
20173;SDS011;10246;50.620;7.232;2022-08-19T09:13:37;17.17;;;12.60;;
20173;SDS011;10246;50.620;7.232;2022-08-19T09:16:13;12.48;;;10.50;;
20173;SDS011;10246;50.620;7.232;2022-08-19T09:18:44;18.17;;;12.52;;
20173;SDS011;10246;50.620;7.232;2022-08-19T09:21:12;16.45;;;10.98;;
20173;SDS011;10246;50.620;7.232;2022-08-19T09:23:41;17.50;;;10.65;;
20173;SDS011;10246;50.620;7.232;2022-08-19T09:26:09;13.85;;;10.43;;
20173;SDS011;10246;50.620;7.232;2022-08-19T09:28:38;15.63;;;11.35;;
20173;SDS011;10246;50.620;7.232;2022-08-19T09:31:07;14.02;;;10.93;;
20173;SDS011;10246;50.620;7.232;2022-08-19T09:33:34;19.98;;;13.15;;
20173;SDS011;10246;50.620;7.232;2022-08-19T09:36:01;17.02;;;11.18;;
20173;SDS011;10246;50.620;7.232;2022-08-19T09:38:29;12.95;;;9.63;;
20173;SDS011;10246;50.620;7.232;2022-08-19T09:41:01;14.98;;;10.60;;
20173;SDS011;10246;50.620;7.232;2022-08-19T09:43:29;12.68;;;9.38;;
20173;SDS011;10246;50.620;7.232;2022-08-19T09:45:56;13.40;;;9.85;;
20173;SDS011;10246;50.620;7.232;2022-08-19T09:48:23;13.07;;;8.85;;
20173;SDS011;10246;50.620;7.232;2022-08-19T09:50:50;17.80;;;11.30;;
20173;SDS011;10246;50.620;7.232;2022-08-19T09:53:17;15.23;;;12.40;;
20173;SDS011;10246;50.620;7.232;2022-08-19T09:55:44;15.77;;;10.30;;
20173;SDS011;10246;50.620;7.232;2022-08-19T09:58:12;14.13;;;11.40;;
20173;SDS011;10246;50.620;7.232;2022-08-19T10:00:39;15.35;;;11.07;;
20173;SDS011;10246;50.620;7.232;2022-08-19T10:03:06;12.30;;;10.18;;
20173;SDS011;10246;50.620;7.232;2022-08-19T10:05:33;18.48;;;12.68;;
20173;SDS011;10246;50.620;7.232;2022-08-19T10:08:15;17.55;;;12.43;;
20173;SDS011;10246;50.620;7.232;2022-08-19T10:10:44;17.33;;;12.20;;
20173;SDS011;10246;50.620;7.232;2022-08-19T10:13:13;19.23;;;13.68;;
20173;SDS011;10246;50.620;7.232;2022-08-19T10:15:42;16.48;;;13.15;;
20173;SDS011;10246;50.620;7.232;2022-08-19T10:18:09;18.52;;;13.45;;
20173;SDS011;10246;50.620;7.232;2022-08-19T10:20:36;17.60;;;13.73;;
20173;SDS011;10246;50.620;7.232;2022-08-19T10:23:03;17.23;;;13.50;;
20173;SDS011;10246;50.620;7.232;2022-08-19T10:25:31;20.35;;;14.48;;
20173;SDS011;10246;50.620;7.232;2022-08-19T10:28:00;16.20;;;13.93;;
20173;SDS011;10246;50.620;7.232;2022-08-19T10:30:28;19.88;;;14.52;;
20173;SDS011;10246;50.620;7.232;2022-08-19T10:32:55;25.27;;;16.02;;
20173;SDS011;10246;50.620;7.232;2022-08-19T10:35:22;20.92;;;15.35;;
20173;SDS011;10246;50.620;7.232;2022-08-19T10:37:51;17.48;;;13.02;;
20173;SDS011;10246;50.620;7.232;2022-08-19T10:40:18;20.05;;;15.63;;
20173;SDS011;10246;50.620;7.232;2022-08-19T10:42:45;19.52;;;14.40;;
20173;SDS011;10246;50.620;7.232;2022-08-19T10:45:12;17.13;;;13.75;;
20173;SDS011;10246;50.620;7.232;2022-08-19T10:47:40;20.52;;;13.52;;
20173;SDS011;10246;50.620;7.232;2022-08-19T10:50:07;17.77;;;14.02;;
20173;SDS011;10246;50.620;7.232;2022-08-19T10:52:52;16.90;;;14.02;;
20173;SDS011;10246;50.620;7.232;2022-08-19T10:55:19;19.45;;;15.35;;
20173;SDS011;10246;50.620;7.232;2022-08-19T10:58:09;16.85;;;13.35;;
20173;SDS011;10246;50.620;7.232;2022-08-19T11:00:37;19.80;;;13.57;;
20173;SDS011;10246;50.620;7.232;2022-08-19T11:03:06;21.10;;;16.35;;
20173;SDS011;10246;50.620;7.232;2022-08-19T11:05:33;22.67;;;15.88;;
20173;SDS011;10246;50.620;7.232;2022-08-19T11:08:00;14.23;;;11.25;;
20173;SDS011;10246;50.620;7.232;2022-08-19T11:10:27;14.07;;;10.98;;
20173;SDS011;10246;50.620;7.232;2022-08-19T11:12:54;15.85;;;12.52;;
20173;SDS011;10246;50.620;7.232;2022-08-19T11:15:21;12.50;;;9.57;;
20173;SDS011;10246;50.620;7.232;2022-08-19T11:17:50;10.82;;;9.60;;
20173;SDS011;10246;50.620;7.232;2022-08-19T11:20:20;17.17;;;12.95;;
20173;SDS011;10246;50.620;7.232;2022-08-19T11:22:48;14.25;;;11.85;;
20173;SDS011;10246;50.620;7.232;2022-08-19T11:25:17;19.38;;;13.02;;
20173;SDS011;10246;50.620;7.232;2022-08-19T11:27:44;18.45;;;14.32;;
20173;SDS011;10246;50.620;7.232;2022-08-19T11:30:12;18.05;;;13.18;;
20173;SDS011;10246;50.620;7.232;2022-08-19T11:32:40;20.00;;;14.45;;
20173;SDS011;10246;50.620;7.232;2022-08-19T11:35:07;14.85;;;11.70;;
20173;SDS011;10246;50.620;7.232;2022-08-19T11:37:37;15.07;;;11.38;;
20173;SDS011;10246;50.620;7.232;2022-08-19T11:40:05;17.42;;;13.38;;
20173;SDS011;10246;50.620;7.232;2022-08-19T11:42:32;13.32;;;10.60;;
20173;SDS011;10246;50.620;7.232;2022-08-19T11:45:17;14.40;;;12.05;;
20173;SDS011;10246;50.620;7.232;2022-08-19T11:47:43;16.58;;;11.85;;
20173;SDS011;10246;50.620;7.232;2022-08-19T11:50:11;14.68;;;10.38;;
20173;SDS011;10246;50.620;7.232;2022-08-19T11:52:40;10.80;;;9.32;;
20173;SDS011;10246;50.620;7.232;2022-08-19T11:55:09;12.55;;;9.30;;
20173;SDS011;10246;50.620;7.232;2022-08-19T11:57:35;12.77;;;9.70;;
20173;SDS011;10246;50.620;7.232;2022-08-19T12:00:03;10.48;;;9.27;;
20173;SDS011;10246;50.620;7.232;2022-08-19T12:02:32;10.55;;;8.88;;
20173;SDS011;10246;50.620;7.232;2022-08-19T12:04:58;8.63;;;7.15;;
20173;SDS011;10246;50.620;7.232;2022-08-19T12:07:26;9.77;;;7.40;;
20173;SDS011;10246;50.620;7.232;2022-08-19T12:09:55;8.50;;;7.20;;
20173;SDS011;10246;50.620;7.232;2022-08-19T12:12:22;7.90;;;5.60;;
20173;SDS011;10246;50.620;7.232;2022-08-19T12:14:49;7.32;;;6.22;;
20173;SDS011;10246;50.620;7.232;2022-08-19T12:17:21;7.45;;;5.60;;
20173;SDS011;10246;50.620;7.232;2022-08-19T12:19:48;12.35;;;5.97;;
20173;SDS011;10246;50.620;7.232;2022-08-19T12:22:15;7.53;;;6.03;;
20173;SDS011;10246;50.620;7.232;2022-08-19T12:24:43;7.75;;;6.75;;
20173;SDS011;10246;50.620;7.232;2022-08-19T12:27:11;8.50;;;6.22;;
20173;SDS011;10246;50.620;7.232;2022-08-19T12:29:38;10.23;;;7.00;;
20173;SDS011;10246;50.620;7.232;2022-08-19T12:32:06;7.10;;;5.45;;
20173;SDS011;10246;50.620;7.232;2022-08-19T12:34:33;8.75;;;6.43;;
20173;SDS011;10246;50.620;7.232;2022-08-19T12:37:03;6.85;;;5.72;;
20173;SDS011;10246;50.620;7.232;2022-08-19T12:39:33;7.57;;;6.20;;
20173;SDS011;10246;50.620;7.232;2022-08-19T12:42:00;12.20;;;7.60;;
20173;SDS011;10246;50.620;7.232;2022-08-19T12:44:29;9.57;;;7.55;;
20173;SDS011;10246;50.620;7.232;2022-08-19T12:46:56;8.80;;;7.90;;
20173;SDS011;10246;50.620;7.232;2022-08-19T12:49:24;11.48;;;7.22;;
20173;SDS011;10246;50.620;7.232;2022-08-19T12:51:51;8.43;;;7.38;;
20173;SDS011;10246;50.620;7.232;2022-08-19T12:54:18;14.43;;;9.23;;
20173;SDS011;10246;50.620;7.232;2022-08-19T12:56:45;12.23;;;9.13;;
20173;SDS011;10246;50.620;7.232;2022-08-19T12:59:12;9.32;;;7.82;;
20173;SDS011;10246;50.620;7.232;2022-08-19T13:01:43;9.73;;;8.73;;
20173;SDS011;10246;50.620;7.232;2022-08-19T13:04:11;13.32;;;8.60;;
20173;SDS011;10246;50.620;7.232;2022-08-19T13:06:38;9.23;;;8.32;;
20173;SDS011;10246;50.620;7.232;2022-08-19T13:09:04;9.48;;;7.80;;
20173;SDS011;10246;50.620;7.232;2022-08-19T13:11:31;11.23;;;9.07;;
20173;SDS011;10246;50.620;7.232;2022-08-19T13:13:59;9.07;;;8.18;;
20173;SDS011;10246;50.620;7.232;2022-08-19T13:16:27;9.55;;;8.55;;
20173;SDS011;10246;50.620;7.232;2022-08-19T13:18:56;12.32;;;8.60;;
20173;SDS011;10246;50.620;7.232;2022-08-19T13:21:24;12.90;;;9.77;;
20173;SDS011;10246;50.620;7.232;2022-08-19T13:23:52;12.60;;;9.50;;
20173;SDS011;10246;50.620;7.232;2022-08-19T13:26:20;9.82;;;8.82;;
20173;SDS011;10246;50.620;7.232;2022-08-19T13:28:47;12.95;;;9.85;;
20173;SDS011;10246;50.620;7.232;2022-08-19T13:31:33;12.43;;;9.65;;
20173;SDS011;10246;50.620;7.232;2022-08-19T13:34:26;10.60;;;9.13;;
20173;SDS011;10246;50.620;7.232;2022-08-19T13:36:55;10.40;;;8.82;;
20173;SDS011;10246;50.620;7.232;2022-08-19T13:39:22;13.27;;;9.80;;
20173;SDS011;10246;50.620;7.232;2022-08-19T13:41:49;11.02;;;9.38;;
20173;SDS011;10246;50.620;7.232;2022-08-19T13:44:16;12.68;;;9.80;;
20173;SDS011;10246;50.620;7.232;2022-08-19T13:46:44;11.57;;;9.27;;
20173;SDS011;10246;50.620;7.232;2022-08-19T13:49:12;12.20;;;10.05;;
20173;SDS011;10246;50.620;7.232;2022-08-19T13:51:41;10.88;;;8.80;;
20173;SDS011;10246;50.620;7.232;2022-08-19T13:54:09;12.25;;;9.35;;
20173;SDS011;10246;50.620;7.232;2022-08-19T13:56:40;10.43;;;8.48;;
20173;SDS011;10246;50.620;7.232;2022-08-19T13:59:07;13.35;;;7.97;;
20173;SDS011;10246;50.620;7.232;2022-08-19T14:01:36;8.02;;;6.97;;
20173;SDS011;10246;50.620;7.232;2022-08-19T14:04:04;11.57;;;7.65;;
20173;SDS011;10246;50.620;7.232;2022-08-19T14:06:31;10.23;;;8.10;;
20173;SDS011;10246;50.620;7.232;2022-08-19T14:08:59;8.18;;;6.90;;
20173;SDS011;10246;50.620;7.232;2022-08-19T14:11:27;9.45;;;8.48;;
20173;SDS011;10246;50.620;7.232;2022-08-19T14:13:54;8.75;;;7.63;;
20173;SDS011;10246;50.620;7.232;2022-08-19T14:16:21;9.65;;;7.18;;
20173;SDS011;10246;50.620;7.232;2022-08-19T14:18:48;9.77;;;8.48;;
20173;SDS011;10246;50.620;7.232;2022-08-19T14:21:15;9.45;;;7.28;;
20173;SDS011;10246;50.620;7.232;2022-08-19T14:23:45;8.40;;;7.20;;
20173;SDS011;10246;50.620;7.232;2022-08-19T14:26:15;7.57;;;6.68;;
20173;SDS011;10246;50.620;7.232;2022-08-19T14:28:43;12.32;;;7.88;;
20173;SDS011;10246;50.620;7.232;2022-08-19T14:31:11;13.60;;;8.75;;
20173;SDS011;10246;50.620;7.232;2022-08-19T14:33:39;10.13;;;7.95;;
20173;SDS011;10246;50.620;7.232;2022-08-19T14:36:07;12.07;;;7.45;;
20173;SDS011;10246;50.620;7.232;2022-08-19T14:38:34;11.00;;;8.27;;
20173;SDS011;10246;50.620;7.232;2022-08-19T14:41:08;12.68;;;8.02;;